Latest Weather Observations for Cape Moreton

IDQ60901

Issued at 6:31 am EST Sunday 26 January 2020 (issued every 10 minutes, with the page automatically refreshed every 10 minutes)

About weather observations | Map of Brisbane area stations | Latest observations for Brisbane area | Other Formats
Station Details ID: 040043 Name: CAPE MORETON LIGHTHOUSE Lat: -27.03 Lon: 153.47 Height: 99.9 m
Data from the previous 72 hours. | See also: Recent months at Cape Moreton
Date/Time
EST
Temp
°C
App
Temp
°C
Dew
Point
°C
Rel
Hum
%
Delta-T
°C
Wind Press
QNH
hPa
Press
MSL
hPa
Rain since
9am
mm
Dir  Spd
km/h
Gust
km/h
Spd
kts
Gust
kts
26/06:30am 25.7 25.3 20.9 75 3.2 NE 24 32 13 17 1014.3 1013.7 0.2
26/06:00am 24.6 24.6 20.9 80 2.4 NE 22 28 12 15 1014.0 1013.4 0.2
26/05:30am 24.4 24.5 21.9 86 1.7 ENE 24 30 13 16 1013.8 1013.2 0.2
26/05:00am 23.6 22.5 21.7 89 1.3 ENE 30 35 16 19 1013.5 1012.9 0.2
26/04:30am 24.1 23.9 22.0 88 1.4 ENE 26 33 14 18 1013.3 1012.7 0.2
26/04:00am 24.6 24.8 21.3 82 2.2 ENE 22 28 12 15 1013.1 1012.5 0.0
26/03:30am 24.5 24.0 20.8 80 2.4 ENE 24 32 13 17 1012.8 1012.2 0.0
26/03:00am 24.8 24.7 21.5 82 2.2 ENE 24 30 13 16 1013.0 1012.4 0.0
26/02:30am 24.7 24.1 21.2 81 2.3 ENE 26 32 14 17 1013.1 1012.5 0.0
26/02:00am 24.8 24.4 20.9 79 2.6 ENE 24 28 13 15 1013.4 1012.8 0.0
26/01:30am 24.8 24.0 20.9 79 2.6 ENE 26 32 14 17 1013.6 1013.0 0.0
26/01:00am 24.9 24.1 20.8 78 2.7 ENE 26 32 14 17 1014.0 1013.4 0.0
26/12:30am 25.0 24.9 21.5 81 2.3 ENE 24 28 13 15 1014.2 1013.6 0.0
26/12:00am 25.0 25.2 21.3 80 2.5 ENE 22 26 12 14 1014.4 1013.8 0.0
 
Date/Time
EST
Temp
°C
App
Temp
°C
Dew
Point
°C
Rel
Hum
%
Delta-T
°C
Wind Press
QNH
hPa
Press
MSL
hPa
Rain since
9am
mm
Dir  Spd
km/h
Gust
km/h
Spd
kts
Gust
kts
25/11:30pm 25.2 25.8 21.3 79 2.6 NE 20 26 11 14 1014.7 1014.1 0.0
25/11:00pm 25.1 25.8 21.6 81 2.3 NE 20 24 11 13 1014.8 1014.2 0.0
25/10:30pm 25.2 25.8 21.3 79 2.6 NE 20 26 11 14 1014.8 1014.2 0.0
25/10:00pm 25.4 25.3 21.5 79 2.6 NE 24 30 13 16 1014.7 1014.1 0.0
25/09:30pm 25.5 25.3 22.0 81 2.3 ENE 26 30 14 16 1014.4 1013.8 0.0
25/09:00pm 25.5 25.5 21.6 79 2.6 NE 24 30 13 16 1014.1 1013.5 0.0
25/08:30pm 25.4 24.9 21.5 79 2.6 NE 26 30 14 16 1014.0 1013.4 0.0
25/08:00pm 25.5 25.9 21.8 80 2.5 NE 22 28 12 15 1013.9 1013.3 0.0
25/07:30pm 25.5 24.9 21.2 77 2.9 NE 26 32 14 17 1013.5 1012.9 0.0
25/07:00pm 25.5 24.5 21.2 77 2.9 ENE 28 33 15 18 1013.4 1012.8 0.0
25/06:30pm 25.6 24.6 21.9 80 2.5 ENE 30 35 16 19 1013.0 1012.4 0.0
25/06:00pm 25.7 24.5 21.6 78 2.7 ENE 30 35 16 19 1012.7 1012.1 0.0
25/05:30pm 25.7 24.9 21.6 78 2.7 ENE 28 32 15 17 1012.4 1011.9 0.0
25/05:00pm 26.1 26.3 22.0 78 2.8 ENE 24 30 13 16 1012.5 1012.0 0.0
25/04:30pm 26.2 26.9 22.3 79 2.6 ENE 22 26 12 14 1012.5 1012.0 0.0
25/04:00pm 26.4 27.7 22.3 78 2.8 NE 19 24 10 13 1012.5 1012.0 0.0
25/03:30pm 26.6 27.1 22.0 76 3.1 NE 22 26 12 14 1012.5 1012.0 0.0
25/03:00pm 26.6 27.1 22.0 76 3.1 NE 22 28 12 15 1012.7 1012.1 0.0
25/02:30pm 26.7 27.0 22.3 77 3.0 NE 24 30 13 16 1012.7 1012.1 0.0
25/02:00pm 27.6 28.7 23.0 76 3.1 NE 22 28 12 15 1012.9 1012.3 0.0
25/01:30pm 28.8 29.5 23.0 71 4.0 NE 24 30 13 16 1013.0 1012.4 0.0
25/01:00pm 28.4 28.5 22.6 71 3.9 NE 26 32 14 17 1013.0 1012.4 0.0
25/12:30pm 28.4 28.8 23.1 73 3.6 NE 26 33 14 18 1013.6 1013.0 0.0
25/12:00pm 28.7 29.5 23.1 71 3.8 NNE 24 32 13 17 1013.9 1013.3 0.0
25/11:30am 28.1 29.6 23.7 77 3.0 NNE 22 30 12 16 1014.0 1013.4 0.0
25/11:00am 27.6 27.6 23.0 76 3.1 NNE 28 32 15 17 1014.1 1013.5 0.0
25/10:30am 28.4 29.4 23.5 75 3.4 NNE 24 32 13 17 1014.4 1013.8 0.0
25/10:00am 28.0 29.8 23.6 77 3.0 NNE 20 26 11 14 1014.5 1013.9 0.0
25/09:30am 28.2 30.2 24.0 78 2.9 NNE 20 26 11 14 1014.2 1013.6 0.0
25/09:00am 27.8 29.7 23.4 77 3.0 N 19 28 10 15 1013.9 1013.3 0.0
25/08:30am 26.9 28.9 23.6 82 2.3 N 19 26 10 14 1013.7 1013.1 0.0
25/08:00am 26.1 27.9 23.6 86 1.7 N 20 26 11 14 1013.6 1013.0 0.0
25/07:30am 25.4 27.2 23.5 89 1.3 N 20 26 11 14 1013.6 1013.0 0.0
25/07:00am 25.2 27.0 23.6 91 1.1 N 20 26 11 14 1013.3 1012.7 0.0
25/06:30am 25.0 26.8 23.6 92 1.0 N 20 24 11 13 1013.1 1012.5 0.0
25/06:00am 25.0 27.1 23.8 93 0.8 NNW 19 24 10 13 1012.7 1012.1 0.0
25/05:30am 25.1 27.5 23.7 92 1.0 NNW 17 20 9 11 1012.4 1011.9 0.0
25/05:00am 25.2 26.8 23.3 89 1.3 NNW 20 30 11 16 1012.0 1011.5 0.0
25/04:30am 25.1 25.9 23.2 89 1.3 NNW 24 32 13 17 1011.8 1011.3 0.0
25/04:00am 25.2 26.8 23.3 89 1.3 NNW 20 28 11 15 1011.9 1011.4 0.0
25/03:30am 25.2 26.5 23.3 89 1.3 NNW 22 28 12 15 1011.7 1011.2 0.0
25/03:00am 25.3 26.7 23.5 90 1.2 N 22 28 12 15 1011.7 1011.2 0.0
25/02:30am 25.4 25.3 23.5 89 1.3 N 30 35 16 19 1011.5 1011.0 0.0
25/02:00am 25.4 25.3 23.5 89 1.3 N 30 35 16 19 1011.7 1011.2 0.0
25/01:30am 25.5 24.8 23.2 87 1.6 N 32 39 17 21 1011.8 1011.3 0.0
25/01:00am 25.6 25.3 23.3 87 1.6 N 30 39 16 21 1012.1 1011.6 0.0
25/12:30am 25.5 25.6 23.2 87 1.6 N 28 37 15 20 1012.0 1011.5 0.0
25/12:00am 25.5 26.1 23.4 88 1.4 N 26 37 14 20 1012.2 1011.7 0.0
 
Date/Time
EST
Temp
°C
App
Temp
°C
Dew
Point
°C
Rel
Hum
%
Delta-T
°C
Wind Press
QNH
hPa
Press
MSL
hPa
Rain since
9am
mm
Dir  Spd
km/h
Gust
km/h
Spd
kts
Gust
kts
24/11:30pm 25.5 25.6 23.2 87 1.6 N 28 35 15 19 1012.8 1012.2 0.0
24/11:00pm 25.5 25.2 23.2 87 1.6 N 30 37 16 20 1012.8 1012.2 0.0
24/10:30pm 25.4 25.5 23.3 88 1.4 N 28 35 15 19 1012.5 1012.0 0.0
24/10:00pm 25.5 24.9 23.4 88 1.4 N 32 39 17 21 1012.5 1012.0 0.0
24/09:30pm 25.6 25.0 23.3 87 1.6 N 32 39 17 21 1012.4 1011.9 0.0
24/09:00pm 25.6 25.2 23.7 89 1.3 N 32 37 17 20 1012.0 1011.5 0.0
24/08:30pm 25.6 25.6 23.1 86 1.7 N 28 39 15 21 1011.7 1011.2 0.0
24/08:00pm 25.6 26.5 23.3 87 1.6 N 24 33 13 18 1011.5 1011.0 0.0
24/07:30pm 25.7 26.0 23.0 85 1.8 NNE 26 33 14 18 1011.2 1010.7 0.0
24/07:00pm 25.7 26.5 23.2 86 1.7 N 24 32 13 17 1011.2 1010.7 0.0
24/06:30pm 25.8 26.6 23.1 85 1.8 N 24 32 13 17 1010.8 1010.3 0.0
24/06:00pm 26.0 26.4 23.1 84 2.0 N 26 33 14 18 1010.5 1010.0 0.0
24/05:30pm 26.0 25.6 23.1 84 2.0 NNE 30 39 16 21 1010.0 1009.5 0.0
24/05:00pm 26.8 27.4 23.5 82 2.3 NNE 26 35 14 19 1009.9 1009.4 0.0
24/04:30pm 26.5 26.2 23.2 82 2.3 NNE 30 35 16 19 1009.7 1009.2 0.0
24/04:00pm 26.7 26.8 23.2 81 2.4 NNE 28 35 15 19 1009.8 1009.3 0.0
24/03:30pm 27.7 28.7 23.5 78 2.9 NNE 24 32 13 17 1010.2 1009.7 0.0
24/03:00pm 27.3 28.4 23.1 78 2.9 NNE 22 33 12 18 1010.4 1009.9 0.0
24/02:30pm 27.9 27.9 23.1 75 3.3 NNE 28 35 15 19 1010.6 1010.1 0.0
24/02:00pm 28.8 29.8 23.5 73 3.7 NNE 24 35 13 19 1011.0 1010.5 0.0
24/01:30pm 28.7 30.5 23.6 74 3.5 NNE 20 32 11 17 1011.4 1010.9 0.0
24/01:00pm 28.3 29.5 23.2 74 3.5 NNE 22 35 12 19 1011.6 1011.1 0.0
24/12:30pm 28.7 30.4 24.0 76 3.3 N 22 30 12 16 1012.2 1011.7 0.0
24/12:00pm 28.3 30.0 24.1 78 2.9 N 22 30 12 16 1012.5 1012.0 0.0
24/11:30am 28.5 30.1 24.5 79 2.8 N 24 30 13 16 1013.0 1012.4 0.0
24/11:00am 27.5 28.8 24.1 82 2.4 N 24 30 13 16 1013.2 1012.6 0.0
24/10:30am 27.0 28.3 24.1 84 2.0 N 24 30 13 16 1013.4 1012.8 0.0
24/10:00am 27.1 28.8 24.0 83 2.1 N 22 32 12 17 1013.4 1012.8 0.0
24/09:30am 27.3 30.7 24.6 85 1.9 NNW 15 19 8 10 1013.7 1013.1 0.0
24/09:00am 27.0 29.2 24.3 85 1.9 N 20 26 11 14 1014.0 1013.4 0.0
24/08:30am 26.7 29.9 24.4 87 1.6 NNW 15 22 8 12 1014.1 1013.5 0.0
24/08:00am 26.4 29.3 23.9 86 1.7 NNW 15 24 8 13 1014.2 1013.6 0.0
24/07:30am 26.0 28.1 23.7 87 1.6 NNW 19 26 10 14 1013.8 1013.2 0.0
24/07:00am 25.9 27.0 23.6 87 1.6 N 24 30 13 16 1013.5 1012.9 0.0
24/06:30am 25.5 26.6 23.6 89 1.3 NNW 24 30 13 16 1013.1 1012.5 0.0
24/06:00am 25.4 25.3 23.6 90 1.2 N 30 35 16 19 1012.7 1012.1 0.0
24/05:30am 25.3 25.5 23.5 90 1.2 N 28 33 15 18 1012.2 1011.7 0.0
24/05:00am 25.2 25.4 23.4 90 1.2 N 28 33 15 18 1011.6 1011.1 0.0
24/04:30am 25.2 25.4 23.4 90 1.2 N 28 35 15 19 1011.3 1010.8 0.0
24/04:00am 25.1 24.8 23.3 90 1.2 N 30 37 16 20 1010.9 1010.4 0.0
24/03:30am 25.1 25.3 23.5 91 1.1 N 28 35 15 19 1011.0 1010.5 0.0
24/03:00am 25.3 25.5 23.5 90 1.2 N 28 32 15 17 1011.6 1011.1 0.0
24/02:30am 25.3 25.9 23.4 89 1.3 N 26 32 14 17 1011.7 1011.2 0.0
24/02:00am 25.2 25.7 23.3 89 1.3 N 26 33 14 18 1012.0 1011.5 0.0
24/01:30am 25.3 24.7 23.4 89 1.3 N 32 35 17 19 1012.3 1011.8 0.0
24/01:00am 25.3 25.5 23.4 89 1.3 N 28 39 15 21 1012.3 1011.8 0.0
24/12:30am 25.2 24.6 23.3 89 1.3 N 32 37 17 20 1012.2 1011.7 0.0
24/12:00am 25.3 25.4 23.2 88 1.4 N 28 39 15 21 1012.1 1011.6 0.0
 
Date/Time
EST
Temp
°C
App
Temp
°C
Dew
Point
°C
Rel
Hum
%
Delta-T
°C
Wind Press
QNH
hPa
Press
MSL
hPa
Rain since
9am
mm
Dir  Spd
km/h
Gust
km/h
Spd
kts
Gust
kts
23/11:30pm 25.4 25.5 23.3 88 1.4 N 28 37 15 20 1012.3 1011.8 0.0
23/11:00pm 25.4 26.0 23.5 89 1.3 N 26 35 14 19 1012.7 1012.1 0.0
23/10:30pm 25.6 27.5 23.8 90 1.2 N 20 30 11 16 1013.0 1012.4 0.0
23/10:00pm 25.4 26.3 23.3 88 1.4 N 24 32 13 17 1013.0 1012.4 0.0
23/09:30pm 25.3 26.7 23.5 90 1.2 N 22 28 12 15 1013.0 1012.4 0.0
23/09:00pm 25.4 27.0 23.8 91 1.1 N 22 32 12 17 1012.5 1012.0 0.0
23/08:30pm 25.6 27.6 24.0 91 1.1 NNE 20 28 11 15 1012.3 1011.8 0.0
23/08:00pm 25.7 27.1 23.6 88 1.4 N 22 32 12 17 1012.2 1011.7 0.0
23/07:30pm 25.7 26.6 23.4 87 1.6 N 24 32 13 17 1012.0 1011.5 0.0
23/07:00pm 25.7 26.4 23.6 88 1.4 N 26 37 14 20 1011.9 1011.4 0.0
23/06:30pm 25.7 26.4 23.6 88 1.4 N 26 35 14 19 1011.4 1010.9 0.0
23/06:00pm 25.8 26.5 23.7 88 1.4 N 26 39 14 21 1010.9 1010.4 0.0
23/05:30pm 25.9 26.6 23.6 87 1.6 NNE 26 35 14 19 1010.3 1009.8 0.0
23/05:00pm 26.0 27.0 23.5 86 1.7 N 24 32 13 17 1010.7 1010.2 0.0
23/04:30pm 26.3 27.6 24.0 87 1.6 N 24 35 13 19 1010.5 1010.0 0.0
23/04:00pm 26.4 27.4 23.5 84 2.0 NNE 24 32 13 17 1010.5 1010.0 0.0
23/03:30pm 26.4 26.1 23.3 83 2.1 NNE 30 39 16 21 1010.5 1010.0 0.0
23/03:00pm 26.5 27.7 23.8 85 1.9 N 24 33 13 18 1010.9 1010.4 0.0
23/02:30pm 26.3 27.4 23.6 85 1.9 N 24 33 13 18 1011.3 1010.8 0.0
23/02:00pm 27.1 28.0 23.3 80 2.6 N 24 35 13 19 1011.9 1011.4 0.0
23/01:30pm 28.7 30.7 24.0 76 3.3 NNE 20 28 11 15 1012.2 1011.7 0.0
23/01:00pm 29.0 31.4 24.3 76 3.3 N 19 28 10 15 1012.8 1012.2 0.0
23/12:30pm 27.0 29.0 23.9 83 2.1 N 20 30 11 16 1013.0 1012.4 0.0
23/12:00pm 26.9 29.1 24.0 84 2.0 N 19 26 10 14 1013.4 1012.8 0.0
23/11:30am 26.9 28.7 23.6 82 2.3 N 20 30 11 16 1013.5 1012.9 0.0
23/11:00am 26.9 28.5 23.8 83 2.1 N 22 30 12 16 1014.1 1013.5 0.0
23/10:30am 27.7 29.6 23.7 79 2.8 N 20 30 11 16 1014.2 1013.6 0.0
23/10:00am 27.6 29.4 24.2 82 2.4 N 22 28 12 15 1014.3 1013.7 0.0
23/09:30am 26.7 28.0 24.0 85 1.9 N 24 30 13 16 1014.3 1013.7 0.0
23/09:00am 26.6 28.3 24.1 86 1.7 NNW 22 32 12 17 1014.3 1013.7 0.0
23/08:30am 25.8 26.2 23.7 88 1.4 N 28 35 15 19 1014.1 1013.5 0.0
23/08:00am 26.1 26.2 24.0 88 1.4 N 30 37 16 20 1014.0 1013.4 0.0
23/07:30am 25.9 26.3 23.8 88 1.4 NNW 28 33 15 18 1013.9 1013.3 0.0
23/07:00am 25.4 26.6 23.8 91 1.1 N 24 33 13 18 1013.8 1013.2 0.0

Latest Capital City Observations: Canberra | Sydney | Melbourne | Brisbane | Adelaide | Perth | Hobart | Darwin

Other formats

Comma delimited format used in spreadsheet applications
http://www.bom.gov.au/fwo/IDQ60901/IDQ60901.94594.axf

JavaScript Object Notation format (JSON) in row-major order
http://www.bom.gov.au/fwo/IDQ60901/IDQ60901.94594.json

Data quality

Most of these data are generated automatically and are frequently updated. Quality checks on data are not normally performed. It is possible for incorrect values to appear. Refer to information at About Latest Weather Observations and please check the disclaimer before using these data.